createdAt,value
2019-05-13T00:00:23.354Z,1025.42
2019-05-13T00:01:23.278Z,1025.43
2019-05-13T00:02:23.575Z,1025.46
2019-05-13T00:03:21.280Z,1025.39
2019-05-13T00:04:21.268Z,1025.48
2019-05-13T00:05:23.294Z,1025.45
2019-05-13T00:06:21.244Z,1025.44
2019-05-13T00:07:21.230Z,1025.54
2019-05-13T00:08:21.918Z,1025.42
2019-05-13T00:09:21.208Z,1025.49
2019-05-13T00:10:21.198Z,1025.51
2019-05-13T00:11:21.187Z,1025.53
2019-05-13T00:12:21.172Z,1025.41
2019-05-13T00:13:23.567Z,1025.45
2019-05-13T00:14:21.149Z,1025.41
2019-05-13T00:15:21.139Z,1025.43
2019-05-13T00:16:23.359Z,1025.50
2019-05-13T00:17:21.116Z,1025.41
2019-05-13T00:18:23.313Z,1025.46
2019-05-13T00:19:23.209Z,1025.44
2019-05-13T00:20:21.084Z,1025.43
2019-05-13T00:21:23.112Z,1025.48
2019-05-13T00:22:23.374Z,1025.47
2019-05-13T00:23:23.253Z,1025.40
2019-05-13T00:24:21.037Z,1025.42
2019-05-13T00:25:21.024Z,1025.42
2019-05-13T00:26:21.012Z,1025.49
2019-05-13T00:27:23.090Z,1025.44
2019-05-13T00:28:23.120Z,1025.49
2019-05-13T00:29:23.329Z,1025.41
2019-05-13T00:30:23.409Z,1025.43
2019-05-13T00:31:20.957Z,1025.44
2019-05-13T00:32:20.943Z,1025.49
2019-05-13T00:33:20.934Z,1025.46
2019-05-13T00:34:20.921Z,1025.39
2019-05-13T00:35:23.170Z,1025.46
2019-05-13T00:36:20.900Z,1025.47
2019-05-13T00:37:20.886Z,1025.44
2019-05-13T00:38:20.877Z,1025.51
2019-05-13T00:39:20.865Z,1025.55
2019-05-13T00:40:20.872Z,1025.57
2019-05-13T00:41:20.842Z,1025.47
2019-05-13T00:42:20.833Z,1025.54
2019-05-13T00:43:20.820Z,1025.45
2019-05-13T00:44:20.808Z,1025.45
2019-05-13T00:45:20.815Z,1025.44
2019-05-13T00:46:20.786Z,1025.39
2019-05-13T00:47:20.777Z,1025.46
2019-05-13T00:48:20.761Z,1025.46
2019-05-13T00:49:20.753Z,1025.51
2019-05-13T00:50:20.757Z,1025.48
2019-05-13T00:51:20.726Z,1025.42
2019-05-13T00:52:20.717Z,1025.40
2019-05-13T00:53:20.704Z,1025.40
2019-05-13T00:54:20.710Z,1025.39
2019-05-13T00:55:20.682Z,1025.39
2019-05-13T00:56:20.671Z,1025.33
2019-05-13T00:57:20.659Z,1025.28
2019-05-13T00:58:20.653Z,1025.29
2019-05-13T00:59:20.662Z,1025.33
2019-05-13T01:00:20.628Z,1025.34
2019-05-13T01:01:20.618Z,1025.32
2019-05-13T01:02:20.609Z,1025.30
2019-05-13T01:03:20.595Z,1025.29
2019-05-13T01:04:20.582Z,1025.30
2019-05-13T01:05:20.589Z,1025.34
2019-05-13T01:06:20.558Z,1025.30
2019-05-13T01:07:26.001Z,1025.34
2019-05-13T01:08:23.484Z,1025.34
2019-05-13T01:09:20.524Z,1025.27
2019-05-13T01:10:20.534Z,1025.31
2019-05-13T01:11:20.502Z,1025.29
2019-05-13T01:12:20.490Z,1025.28
2019-05-13T01:13:20.480Z,1025.29
2019-05-13T01:14:20.469Z,1025.28
2019-05-13T01:15:20.475Z,1025.27
2019-05-13T01:16:20.444Z,1025.26
2019-05-13T01:17:20.434Z,1025.36
2019-05-13T01:18:20.430Z,1025.37
2019-05-13T01:19:20.411Z,1025.32
2019-05-13T01:20:20.420Z,1025.37
2019-05-13T01:21:20.389Z,1025.40
2019-05-13T01:22:20.376Z,1025.36
2019-05-13T01:23:20.366Z,1025.36
2019-05-13T01:24:20.356Z,1025.31
2019-05-13T01:25:20.365Z,1025.30
2019-05-13T01:26:20.332Z,1025.36
2019-05-13T01:27:20.319Z,1025.30
2019-05-13T01:28:20.309Z,1025.38
2019-05-13T01:29:20.296Z,1025.37
2019-05-13T01:30:20.285Z,1025.38
2019-05-13T01:31:20.294Z,1025.35
2019-05-13T01:32:20.265Z,1025.34
2019-05-13T01:33:20.253Z,1025.39
2019-05-13T01:34:20.239Z,1025.34
2019-05-13T01:35:20.227Z,1025.37
2019-05-13T01:36:20.236Z,1025.36
2019-05-13T01:37:20.208Z,1025.34
2019-05-13T01:38:20.194Z,1025.36
2019-05-13T01:39:20.185Z,1025.32
2019-05-13T01:40:20.173Z,1025.28
2019-05-13T01:41:20.179Z,1025.33
2019-05-13T01:42:20.149Z,1025.30
2019-05-13T01:43:20.138Z,1025.33
2019-05-13T01:44:20.128Z,1025.29
2019-05-13T01:45:20.115Z,1025.25
2019-05-13T01:46:20.124Z,1025.33
2019-05-13T01:47:20.093Z,1025.25
2019-05-13T01:48:20.082Z,1025.34
2019-05-13T01:49:20.070Z,1025.28
2019-05-13T01:50:20.057Z,1025.35
2019-05-13T01:51:20.046Z,1025.31
2019-05-13T01:52:20.053Z,1025.29
2019-05-13T01:53:20.025Z,1025.25
2019-05-13T01:54:20.014Z,1025.31
2019-05-13T01:55:20.002Z,1025.32
2019-05-13T01:56:19.990Z,1025.24
2019-05-13T01:57:20.000Z,1025.33
2019-05-13T01:58:19.968Z,1025.33
2019-05-13T01:59:19.957Z,1025.24
2019-05-13T02:00:19.955Z,1025.29
2019-05-13T02:01:19.931Z,1025.31
2019-05-13T02:02:19.940Z,1025.33
2019-05-13T02:03:19.909Z,1025.31
2019-05-13T02:04:19.897Z,1025.43
2019-05-13T02:05:19.887Z,1025.33
2019-05-13T02:06:19.877Z,1025.43
2019-05-13T02:07:19.891Z,1025.43
2019-05-13T02:08:19.852Z,1025.41
2019-05-13T02:09:19.842Z,1025.46
2019-05-13T02:10:19.830Z,1025.42
2019-05-13T02:11:19.820Z,1025.37
2019-05-13T02:12:19.807Z,1025.36
2019-05-13T02:13:19.816Z,1025.28
2019-05-13T02:14:19.786Z,1025.28
2019-05-13T02:15:19.773Z,1025.29
2019-05-13T02:16:19.762Z,1025.31
2019-05-13T02:17:19.750Z,1025.31
2019-05-13T02:18:19.760Z,1025.26
2019-05-13T02:19:19.727Z,1025.18
2019-05-13T02:20:19.715Z,1025.15
2019-05-13T02:21:19.706Z,1025.31
2019-05-13T02:22:19.697Z,1025.31
2019-05-13T02:23:19.704Z,1025.32
2019-05-13T02:24:19.671Z,1025.38
2019-05-13T02:25:19.660Z,1025.47
2019-05-13T02:26:19.650Z,1025.47
2019-05-13T02:27:19.637Z,1025.55
2019-05-13T02:28:19.650Z,1025.53
2019-05-13T02:29:19.617Z,1025.54
2019-05-13T02:30:19.602Z,1025.60
2019-05-13T02:31:32.025Z,1025.63
2019-05-13T02:32:23.468Z,1025.60
2019-05-13T02:33:22.910Z,1025.54
2019-05-13T02:34:22.981Z,1025.59
2019-05-13T02:35:22.981Z,1025.62
2019-05-13T02:36:22.720Z,1025.64
2019-05-13T02:37:22.919Z,1025.63
2019-05-13T02:38:28.376Z,1025.62
2019-05-13T02:39:22.368Z,1025.61
2019-05-13T02:40:22.526Z,1025.64
2019-05-13T02:41:22.569Z,1025.69
2019-05-13T02:42:22.638Z,1025.65
2019-05-13T02:43:22.747Z,1025.60
2019-05-13T02:44:22.369Z,1025.67
2019-05-13T02:45:22.543Z,1025.69
2019-05-13T02:46:22.380Z,1025.65
2019-05-13T02:47:22.405Z,1025.64
2019-05-13T02:48:22.881Z,1025.65
2019-05-13T02:49:22.883Z,1025.68
2019-05-13T02:50:22.370Z,1025.71
2019-05-13T02:51:22.712Z,1025.66
2019-05-13T02:52:22.265Z,1025.58
2019-05-13T02:53:19.345Z,1025.60
2019-05-13T02:54:22.716Z,1025.63
2019-05-13T02:55:22.176Z,1025.58
2019-05-13T02:56:22.391Z,1025.64
2019-05-13T02:57:19.297Z,1025.66
2019-05-13T02:58:23.616Z,1025.58
2019-05-13T02:59:22.710Z,1025.59
2019-05-13T03:00:19.289Z,1025.61
2019-05-13T03:01:22.089Z,1025.60
2019-05-13T03:02:22.197Z,1025.57
2019-05-13T03:03:22.693Z,1025.62
2019-05-13T03:04:19.217Z,1025.60
2019-05-13T03:05:21.866Z,1025.56
2019-05-13T03:06:22.146Z,1025.61
2019-05-13T03:07:23.000Z,1025.63
2019-05-13T03:08:35.212Z,1025.68
2019-05-13T03:09:23.008Z,1025.64
2019-05-13T03:10:22.205Z,1025.62
2019-05-13T03:11:22.502Z,1025.61
2019-05-13T03:12:19.123Z,1025.60
2019-05-13T03:13:19.126Z,1025.73
2019-05-13T03:14:19.104Z,1025.61
2019-05-13T03:15:19.095Z,1025.62
2019-05-13T03:16:19.121Z,1025.61
2019-05-13T03:17:22.070Z,1025.68
2019-05-13T03:18:22.304Z,1025.67
2019-05-13T03:19:22.188Z,1025.72
2019-05-13T03:20:22.388Z,1025.72
2019-05-13T03:21:22.903Z,1025.78
2019-05-13T03:22:22.149Z,1025.74
2019-05-13T03:23:22.447Z,1025.73
2019-05-13T03:24:22.395Z,1025.80
2019-05-13T03:25:22.232Z,1025.70
2019-05-13T03:26:18.968Z,1025.76
2019-05-13T03:27:20.689Z,1025.78
2019-05-13T03:28:22.297Z,1025.78
2019-05-13T03:29:21.972Z,1025.75
2019-05-13T03:30:24.451Z,1025.79
2019-05-13T03:31:25.621Z,1025.78
2019-05-13T03:32:25.736Z,1025.79
2019-05-13T03:33:26.821Z,1025.79
2019-05-13T03:34:25.535Z,1025.85
2019-05-13T03:35:25.778Z,1025.81
2019-05-13T03:36:25.289Z,1025.88
2019-05-13T03:37:25.516Z,1025.90
2019-05-13T03:38:22.533Z,1025.84
2019-05-13T03:39:18.821Z,1025.85
2019-05-13T03:40:18.808Z,1025.89
2019-05-13T03:41:18.813Z,1025.92
2019-05-13T03:42:18.784Z,1025.89
2019-05-13T03:43:18.789Z,1025.92
2019-05-13T03:44:18.774Z,1025.85
2019-05-13T03:45:21.803Z,1025.89
2019-05-13T03:46:18.739Z,1025.98
2019-05-13T03:47:18.726Z,1025.97
2019-05-13T03:48:18.731Z,1025.93
2019-05-13T03:49:18.701Z,1025.91
2019-05-13T03:50:18.691Z,1026.00
2019-05-13T03:51:21.944Z,1025.95
2019-05-13T03:52:18.670Z,1025.98
2019-05-13T03:53:18.673Z,1025.98
2019-05-13T03:54:18.644Z,1025.95
2019-05-13T03:55:18.633Z,1026.01
2019-05-13T03:56:18.626Z,1025.92
2019-05-13T03:57:18.623Z,1025.93
2019-05-13T03:58:18.688Z,1025.98
2019-05-13T03:59:18.599Z,1026.00
2019-05-13T04:00:18.575Z,1025.96
2019-05-13T04:01:18.583Z,1026.01
2019-05-13T04:02:18.560Z,1026.00
2019-05-13T04:03:18.582Z,1026.01
2019-05-13T04:04:18.538Z,1026.04
2019-05-13T04:05:22.446Z,1026.02
2019-05-13T04:06:18.512Z,1026.10
2019-05-13T04:07:18.503Z,1026.09
2019-05-13T04:08:18.495Z,1026.11
2019-05-13T04:09:29.639Z,1026.11
2019-05-13T04:10:22.428Z,1026.21
2019-05-13T04:11:18.452Z,1026.09
2019-05-13T04:12:18.444Z,1026.05
2019-05-13T04:13:18.433Z,1026.09
2019-05-13T04:14:18.449Z,1026.13
2019-05-13T04:15:18.403Z,1026.21
2019-05-13T04:16:18.403Z,1026.13
2019-05-13T04:17:18.396Z,1026.11
2019-05-13T04:18:18.372Z,1026.12
2019-05-13T04:19:18.376Z,1026.17
2019-05-13T04:20:18.367Z,1026.14
2019-05-13T04:21:18.340Z,1026.25
2019-05-13T04:22:18.324Z,1026.22
2019-05-13T04:23:18.330Z,1026.25
2019-05-13T04:24:18.316Z,1026.30
2019-05-13T04:25:18.309Z,1026.24
2019-05-13T04:26:18.289Z,1026.33
2019-05-13T04:27:18.270Z,1026.29
2019-05-13T04:28:18.256Z,1026.26
2019-05-13T04:29:18.246Z,1026.31
2019-05-13T04:30:18.251Z,1026.31
2019-05-13T04:31:18.222Z,1026.33
2019-05-13T04:32:18.209Z,1026.29
2019-05-13T04:33:18.200Z,1026.31
2019-05-13T04:34:18.187Z,1026.35
2019-05-13T04:35:18.195Z,1026.23
2019-05-13T04:36:18.165Z,1026.22
2019-05-13T04:37:18.155Z,1026.24
2019-05-13T04:38:18.143Z,1026.29
2019-05-13T04:39:38.966Z,1026.28
2019-05-13T04:40:22.627Z,1026.26
2019-05-13T04:41:18.110Z,1026.20
2019-05-13T04:42:18.105Z,1026.22
2019-05-13T04:43:18.086Z,1026.24
2019-05-13T04:44:18.076Z,1026.23
2019-05-13T04:45:18.085Z,1026.29
2019-05-13T04:46:18.053Z,1026.31
2019-05-13T04:47:18.039Z,1026.31
2019-05-13T04:48:18.029Z,1026.30
2019-05-13T04:49:18.019Z,1026.27
2019-05-13T04:50:18.006Z,1026.26
2019-05-13T04:51:18.029Z,1026.25
2019-05-13T04:52:17.983Z,1026.23
2019-05-13T04:53:17.968Z,1026.19
2019-05-13T04:54:17.965Z,1026.20
2019-05-13T04:55:17.950Z,1026.28
2019-05-13T04:56:17.962Z,1026.25
2019-05-13T04:57:17.929Z,1026.30
2019-05-13T04:58:17.915Z,1026.30
2019-05-13T04:59:17.903Z,1026.35
2019-05-13T05:00:17.897Z,1026.31
2019-05-13T05:01:17.920Z,1026.32
2019-05-13T05:02:17.883Z,1026.30
2019-05-13T05:03:32.993Z,1026.32
2019-05-13T05:04:24.456Z,1026.30
2019-05-13T05:05:22.207Z,1026.34
2019-05-13T05:06:17.825Z,1026.29
2019-05-13T05:07:17.833Z,1026.34
2019-05-13T05:08:17.804Z,1026.37
2019-05-13T05:09:17.789Z,1026.38
2019-05-13T05:10:30.533Z,1026.36
2019-05-13T05:11:22.012Z,1026.41
2019-05-13T05:12:17.775Z,1026.29
2019-05-13T05:13:17.745Z,1026.35
2019-05-13T05:14:17.732Z,1026.40
2019-05-13T05:15:17.720Z,1026.36
2019-05-13T05:16:17.721Z,1026.37
2019-05-13T05:17:17.731Z,1026.37
2019-05-13T05:18:17.691Z,1026.37
2019-05-13T05:19:17.676Z,1026.38
2019-05-13T05:20:17.673Z,1026.41
2019-05-13T05:21:17.649Z,1026.44
2019-05-13T05:22:17.670Z,1026.49
2019-05-13T05:23:17.626Z,1026.49
2019-05-13T05:24:17.617Z,1026.48
2019-05-13T05:25:17.606Z,1026.46
2019-05-13T05:26:17.594Z,1026.48
2019-05-13T05:27:17.626Z,1026.48
2019-05-13T05:28:17.573Z,1026.45
2019-05-13T05:29:17.559Z,1026.49
2019-05-13T05:30:17.546Z,1026.44
2019-05-13T05:31:17.535Z,1026.48
2019-05-13T05:32:17.525Z,1026.52
2019-05-13T05:33:17.532Z,1026.51
2019-05-13T05:34:17.503Z,1026.52
2019-05-13T05:35:17.498Z,1026.52
2019-05-13T05:36:17.479Z,1026.43
2019-05-13T05:37:17.487Z,1026.45
2019-05-13T05:38:17.461Z,1026.53
2019-05-13T05:39:17.444Z,1026.55
2019-05-13T05:40:31.014Z,1026.50
2019-05-13T05:41:18.425Z,1026.53
2019-05-13T05:42:17.451Z,1026.59
2019-05-13T05:43:17.400Z,1026.56
2019-05-13T05:44:17.388Z,1026.58
2019-05-13T05:45:17.388Z,1026.60
2019-05-13T05:46:17.369Z,1026.55
2019-05-13T05:47:17.374Z,1026.58
2019-05-13T05:48:17.345Z,1026.56
2019-05-13T05:49:17.332Z,1026.56
2019-05-13T05:50:17.322Z,1026.54
2019-05-13T05:51:17.310Z,1026.43
2019-05-13T05:52:17.315Z,1026.52
2019-05-13T05:53:17.286Z,1026.46
2019-05-13T05:54:17.274Z,1026.47
2019-05-13T05:55:17.262Z,1026.47
2019-05-13T05:56:17.251Z,1026.49
2019-05-13T05:57:17.268Z,1026.53
2019-05-13T05:58:17.281Z,1026.55
2019-05-13T05:59:17.217Z,1026.55
2019-05-13T06:00:17.220Z,1026.51
2019-05-13T06:01:17.193Z,1026.55
2019-05-13T06:02:17.180Z,1026.58
2019-05-13T06:03:17.193Z,1026.56
2019-05-13T06:04:17.159Z,1026.62
2019-05-13T06:05:17.148Z,1026.58
2019-05-13T06:06:17.136Z,1026.54
2019-05-13T06:07:17.124Z,1026.62
2019-05-13T06:08:17.890Z,1026.59
2019-05-13T06:09:17.107Z,1026.65
2019-05-13T06:10:17.100Z,1026.53
2019-05-13T06:11:17.076Z,1026.57
2019-05-13T06:12:17.065Z,1026.63
2019-05-13T06:13:17.078Z,1026.62
2019-05-13T06:14:17.049Z,1026.59
2019-05-13T06:15:17.031Z,1026.63
2019-05-13T06:16:17.020Z,1026.62
2019-05-13T06:17:17.010Z,1026.66
2019-05-13T06:18:17.018Z,1026.64
2019-05-13T06:19:18.006Z,1026.72
2019-05-13T06:20:16.976Z,1026.60
2019-05-13T06:21:16.969Z,1026.74
2019-05-13T06:22:16.961Z,1026.75
2019-05-13T06:23:16.962Z,1026.83
2019-05-13T06:24:16.930Z,1026.81
2019-05-13T06:25:16.919Z,1026.82
2019-05-13T06:26:16.908Z,1026.77
2019-05-13T06:27:16.901Z,1026.75
2019-05-13T06:28:16.901Z,1026.61
2019-05-13T06:29:16.907Z,1026.74
2019-05-13T06:30:16.863Z,1026.79
2019-05-13T06:31:16.849Z,1026.78
2019-05-13T06:32:22.480Z,1026.74
2019-05-13T06:33:17.862Z,1026.75
2019-05-13T06:34:16.814Z,1026.77
2019-05-13T06:35:16.800Z,1026.76
2019-05-13T06:36:16.789Z,1026.81
2019-05-13T06:37:16.777Z,1026.74
2019-05-13T06:38:16.764Z,1026.73
2019-05-13T06:39:16.776Z,1026.85
2019-05-13T06:40:16.742Z,1026.85
2019-05-13T06:41:16.730Z,1026.79
2019-05-13T06:42:16.725Z,1026.88
2019-05-13T06:43:16.708Z,1026.88
2019-05-13T06:44:16.714Z,1026.85
2019-05-13T06:45:16.685Z,1026.92
2019-05-13T06:46:16.677Z,1026.90
2019-05-13T06:47:16.661Z,1026.84
2019-05-13T06:48:16.648Z,1026.83
2019-05-13T06:49:16.679Z,1026.80
2019-05-13T06:50:16.626Z,1026.85
2019-05-13T06:51:16.618Z,1026.94
2019-05-13T06:52:16.605Z,1026.87
2019-05-13T06:53:16.592Z,1026.80
2019-05-13T06:54:16.583Z,1026.85
2019-05-13T06:55:16.591Z,1026.86
2019-05-13T06:56:16.557Z,1026.82
2019-05-13T06:57:16.546Z,1026.88
2019-05-13T06:58:16.537Z,1026.89
2019-05-13T06:59:16.528Z,1026.81
2019-05-13T07:00:16.531Z,1026.78
2019-05-13T07:01:16.500Z,1026.82
2019-05-13T07:02:16.487Z,1026.81
2019-05-13T07:03:16.476Z,1026.80
2019-05-13T07:04:16.464Z,1026.84
2019-05-13T07:05:16.473Z,1026.83
2019-05-13T07:06:16.442Z,1026.80
2019-05-13T07:07:17.489Z,1026.81
2019-05-13T07:08:16.419Z,1026.82
2019-05-13T07:09:16.407Z,1026.78
2019-05-13T07:10:16.416Z,1026.77
2019-05-13T07:11:21.073Z,1026.80
2019-05-13T07:12:17.400Z,1026.82
2019-05-13T07:13:16.363Z,1026.85
2019-05-13T07:14:16.351Z,1026.85
2019-05-13T07:15:16.359Z,1026.78
2019-05-13T07:16:16.326Z,1026.91
2019-05-13T07:17:16.316Z,1026.88
2019-05-13T07:18:16.503Z,1026.88
2019-05-13T07:19:16.294Z,1026.88
2019-05-13T07:20:16.301Z,1026.82
2019-05-13T07:21:16.271Z,1026.76
2019-05-13T07:22:16.257Z,1026.82
2019-05-13T07:23:16.247Z,1026.82
2019-05-13T07:24:16.233Z,1026.93
2019-05-13T07:25:16.240Z,1026.93
2019-05-13T07:26:16.209Z,1026.95
2019-05-13T07:27:16.200Z,1027.03
2019-05-13T07:28:16.197Z,1027.01
2019-05-13T07:29:16.610Z,1027.03
2019-05-13T07:30:16.198Z,1027.06
2019-05-13T07:31:16.156Z,1027.03
2019-05-13T07:32:16.144Z,1026.98
2019-05-13T07:33:16.142Z,1027.12
2019-05-13T07:34:16.123Z,1027.13
2019-05-13T07:35:16.122Z,1027.18
2019-05-13T07:36:16.113Z,1027.21
2019-05-13T07:37:16.084Z,1027.34
2019-05-13T07:38:16.073Z,1027.20
2019-05-13T07:39:16.063Z,1027.19
2019-05-13T07:40:16.072Z,1027.01
2019-05-13T07:41:16.060Z,1027.24
2019-05-13T07:42:16.032Z,1027.33
2019-05-13T07:43:16.017Z,1027.36
2019-05-13T07:44:16.006Z,1027.14
2019-05-13T07:45:16.006Z,1027.44
2019-05-13T07:46:16.004Z,1027.42
2019-05-13T07:47:16.207Z,1027.35
2019-05-13T07:48:21.330Z,1027.42
2019-05-13T07:49:16.951Z,1027.49
2019-05-13T07:50:15.938Z,1027.40
2019-05-13T07:51:15.958Z,1027.52
2019-05-13T07:52:15.917Z,1027.42
2019-05-13T07:53:18.977Z,1027.52
2019-05-13T07:54:15.894Z,1027.45
2019-05-13T07:55:15.880Z,1027.52
2019-05-13T07:56:15.870Z,1027.57
2019-05-13T07:57:15.878Z,1027.56
2019-05-13T07:58:15.849Z,1027.65
2019-05-13T07:59:15.838Z,1027.48
2019-05-13T08:00:15.826Z,1027.59
2019-05-13T08:01:15.814Z,1027.47
2019-05-13T08:02:15.822Z,1027.55
2019-05-13T08:03:15.792Z,1027.59
2019-05-13T08:04:22.254Z,1027.55
2019-05-13T08:05:16.772Z,1027.59
2019-05-13T08:06:15.762Z,1027.52
2019-05-13T08:07:15.768Z,1027.62
2019-05-13T08:08:15.739Z,1027.49
2019-05-13T08:09:15.730Z,1027.55
2019-05-13T08:10:15.715Z,1027.55
2019-05-13T08:11:15.706Z,1027.61
2019-05-13T08:12:15.871Z,1027.73
2019-05-13T08:13:15.696Z,1027.64
2019-05-13T08:14:15.673Z,1027.55
2019-05-13T08:15:15.693Z,1027.74
2019-05-13T08:16:15.652Z,1027.78
2019-05-13T08:17:15.874Z,1027.61
2019-05-13T08:18:15.688Z,1027.73
2019-05-13T08:19:15.619Z,1027.51
2019-05-13T08:20:15.608Z,1027.74
2019-05-13T08:21:15.597Z,1027.65
2019-05-13T08:22:15.610Z,1027.64
2019-05-13T08:23:15.576Z,1027.61
2019-05-13T08:24:15.562Z,1027.69
2019-05-13T08:25:15.555Z,1027.81
2019-05-13T08:26:15.542Z,1027.88
2019-05-13T08:27:15.533Z,1027.61
2019-05-13T08:28:15.540Z,1027.32
2019-05-13T08:29:15.511Z,1027.71
2019-05-13T08:30:18.073Z,1027.85
2019-05-13T08:31:15.492Z,1027.70
2019-05-13T08:32:15.483Z,1027.72
2019-05-13T08:33:15.496Z,1027.68
2019-05-13T08:34:15.460Z,1027.80
2019-05-13T08:35:15.451Z,1027.79
2019-05-13T08:36:15.439Z,1027.69
2019-05-13T08:37:15.426Z,1027.74
2019-05-13T08:38:15.436Z,1027.72
2019-05-13T08:39:15.409Z,1027.84
2019-05-13T08:40:15.397Z,1027.76
2019-05-13T08:41:19.384Z,1027.73
2019-05-13T08:42:19.840Z,1027.76
2019-05-13T08:43:16.444Z,1027.56
2019-05-13T08:44:15.352Z,1027.61
2019-05-13T08:45:15.343Z,1027.73
2019-05-13T08:46:15.334Z,1027.69
2019-05-13T08:47:15.322Z,1027.71
2019-05-13T08:48:15.312Z,1027.71
2019-05-13T08:49:15.321Z,1027.74
2019-05-13T08:50:15.291Z,1027.73
2019-05-13T08:51:15.282Z,1027.69
2019-05-13T08:52:15.317Z,1027.69
2019-05-13T08:53:15.263Z,1027.71
2019-05-13T08:54:15.269Z,1027.73
2019-05-13T08:55:16.243Z,1027.75
2019-05-13T08:56:15.231Z,1027.61
2019-05-13T08:57:15.221Z,1027.43
2019-05-13T08:58:15.211Z,1027.54
2019-05-13T08:59:15.220Z,1027.67
2019-05-13T09:00:15.187Z,1027.54
2019-05-13T09:01:15.178Z,1027.43
2019-05-13T09:02:15.171Z,1027.48
2019-05-13T09:03:15.165Z,1027.50
2019-05-13T09:04:15.190Z,1027.57
2019-05-13T09:05:15.141Z,1027.64
2019-05-13T09:06:15.130Z,1027.56
2019-05-13T09:07:15.120Z,1027.59
2019-05-13T09:08:15.108Z,1027.64
2019-05-13T09:09:15.097Z,1027.27
2019-05-13T09:10:15.108Z,1027.55
2019-05-13T09:11:15.077Z,1027.58
2019-05-13T09:12:28.694Z,1027.66
2019-05-13T09:13:16.055Z,1027.62
2019-05-13T09:14:15.049Z,1027.62
2019-05-13T09:15:15.060Z,1027.44
2019-05-13T09:16:15.027Z,1027.54
2019-05-13T09:17:15.019Z,1027.51
2019-05-13T09:18:15.029Z,1027.53
2019-05-13T09:19:16.215Z,1027.48
2019-05-13T09:20:15.008Z,1027.45
2019-05-13T09:21:14.982Z,1027.54
2019-05-13T09:22:14.974Z,1027.57
2019-05-13T09:23:14.958Z,1027.55
2019-05-13T09:24:25.401Z,1027.36
2019-05-13T09:25:15.970Z,1027.31
2019-05-13T09:26:14.932Z,1027.53
2019-05-13T09:27:14.922Z,1027.56
2019-05-13T09:28:14.912Z,1027.51
2019-05-13T09:29:14.901Z,1027.48
2019-05-13T09:30:14.893Z,1027.53
2019-05-13T09:31:14.903Z,1027.54
2019-05-13T09:32:14.883Z,1027.57
2019-05-13T09:33:14.866Z,1027.58
2019-05-13T09:34:14.853Z,1027.61
2019-05-13T09:35:14.847Z,1027.58
2019-05-13T09:36:14.852Z,1027.59
2019-05-13T09:37:14.825Z,1027.50
2019-05-13T09:38:14.837Z,1027.57
2019-05-13T09:39:14.810Z,1027.52
2019-05-13T09:40:14.796Z,1027.50
2019-05-13T09:41:14.807Z,1027.53
2019-05-13T09:42:14.775Z,1027.61
2019-05-13T09:43:14.766Z,1027.59
2019-05-13T09:44:14.756Z,1027.61
2019-05-13T09:45:14.744Z,1027.55
2019-05-13T09:46:14.754Z,1027.51
2019-05-13T09:47:14.726Z,1027.63
2019-05-13T09:48:14.713Z,1027.59
2019-05-13T09:49:19.653Z,1027.56
2019-05-13T09:50:28.482Z,1027.59
2019-05-13T09:51:15.708Z,1027.48
2019-05-13T09:52:14.676Z,1027.55
2019-05-13T09:53:14.667Z,1027.51
2019-05-13T09:54:14.658Z,1027.54
2019-05-13T09:55:25.295Z,1027.58
2019-05-13T09:56:15.660Z,1027.59
2019-05-13T09:57:14.628Z,1027.47
2019-05-13T09:58:14.619Z,1027.46
2019-05-13T09:59:14.610Z,1027.40
2019-05-13T10:00:14.612Z,1027.46
2019-05-13T10:01:14.589Z,1027.42
2019-05-13T10:02:14.622Z,1027.52
2019-05-13T10:03:14.573Z,1027.37
2019-05-13T10:04:14.555Z,1027.48
2019-05-13T10:05:14.556Z,1027.44
2019-05-13T10:06:14.537Z,1027.49
2019-05-13T10:07:14.550Z,1027.44
2019-05-13T10:08:14.520Z,1027.50
2019-05-13T10:09:14.508Z,1027.51
2019-05-13T10:10:14.499Z,1027.45
2019-05-13T10:11:14.490Z,1027.42
2019-05-13T10:12:14.499Z,1027.42
2019-05-13T10:13:15.665Z,1027.38
2019-05-13T10:14:14.466Z,1027.39
2019-05-13T10:15:14.449Z,1027.36
2019-05-13T10:16:14.438Z,1027.27
2019-05-13T10:17:14.431Z,1027.27
2019-05-13T10:18:14.438Z,1027.28
2019-05-13T10:19:14.407Z,1027.32
2019-05-13T10:20:14.401Z,1027.39
2019-05-13T10:21:14.389Z,1027.30
2019-05-13T10:22:14.380Z,1027.32
2019-05-13T10:23:14.385Z,1027.31
2019-05-13T10:24:14.361Z,1027.37
2019-05-13T10:25:14.349Z,1027.23
2019-05-13T10:26:14.693Z,1027.26
2019-05-13T10:27:18.631Z,1027.33
2019-05-13T10:28:14.337Z,1027.26
2019-05-13T10:29:14.314Z,1027.30
2019-05-13T10:30:14.301Z,1027.18
2019-05-13T10:31:14.289Z,1027.17
2019-05-13T10:32:14.286Z,1027.22
2019-05-13T10:33:14.297Z,1027.24
2019-05-13T10:34:14.370Z,1027.21
2019-05-13T10:35:14.249Z,1027.18
2019-05-13T10:36:14.239Z,1027.01
2019-05-13T10:37:14.230Z,1027.29
2019-05-13T10:38:14.229Z,1027.24
2019-05-13T10:39:14.228Z,1027.20
2019-05-13T10:40:14.200Z,1027.18
2019-05-13T10:41:14.190Z,1027.33
2019-05-13T10:42:14.179Z,1027.23
2019-05-13T10:43:29.351Z,1027.20
2019-05-13T10:44:15.177Z,1027.22
2019-05-13T10:45:14.193Z,1027.16
2019-05-13T10:46:14.142Z,1027.11
2019-05-13T10:47:14.139Z,1027.09
2019-05-13T10:48:14.121Z,1027.13
2019-05-13T10:49:14.132Z,1027.12
2019-05-13T10:50:14.101Z,1027.08
2019-05-13T10:51:14.092Z,1027.13
2019-05-13T10:52:14.081Z,1027.12
2019-05-13T10:53:14.072Z,1027.05
2019-05-13T10:54:14.080Z,1027.12
2019-05-13T10:55:14.064Z,1027.01
2019-05-13T10:56:14.044Z,1026.97
2019-05-13T10:57:14.043Z,1026.95
2019-05-13T10:58:14.044Z,1026.91
2019-05-13T10:59:14.030Z,1026.84
2019-05-13T11:00:14.001Z,1026.89
2019-05-13T11:01:14.006Z,1026.90
2019-05-13T11:02:13.992Z,1026.83
2019-05-13T11:03:13.968Z,1026.84
2019-05-13T11:04:14.092Z,1026.83
2019-05-13T11:05:22.833Z,1026.90
2019-05-13T11:06:13.941Z,1026.85
2019-05-13T11:07:13.928Z,1026.82
2019-05-13T11:08:13.917Z,1026.86
2019-05-13T11:09:13.930Z,1026.80
2019-05-13T11:10:13.897Z,1026.82
2019-05-13T11:11:13.886Z,1026.82
2019-05-13T11:12:13.877Z,1026.79
2019-05-13T11:13:13.868Z,1026.75
2019-05-13T11:14:15.797Z,1026.73
2019-05-13T11:15:13.849Z,1026.79
2019-05-13T11:16:13.837Z,1026.80
2019-05-13T11:17:13.857Z,1026.77
2019-05-13T11:18:18.962Z,1026.73
2019-05-13T11:19:14.828Z,1026.71
2019-05-13T11:20:13.799Z,1026.72
2019-05-13T11:21:13.789Z,1026.67
2019-05-13T11:22:13.780Z,1026.74
2019-05-13T11:23:13.769Z,1026.70
2019-05-13T11:24:13.777Z,1026.69
2019-05-13T11:25:13.815Z,1026.67
2019-05-13T11:26:13.739Z,1026.66
2019-05-13T11:27:13.732Z,1026.55
2019-05-13T11:28:13.721Z,1026.62
2019-05-13T11:29:13.727Z,1026.65
2019-05-13T11:30:13.700Z,1026.56
2019-05-13T11:31:13.689Z,1026.60
2019-05-13T11:32:13.692Z,1026.53
2019-05-13T11:33:13.671Z,1026.47
2019-05-13T11:34:13.676Z,1026.51
2019-05-13T11:35:13.650Z,1026.50
2019-05-13T11:36:18.924Z,1026.51
2019-05-13T11:37:14.651Z,1026.53
2019-05-13T11:38:13.617Z,1026.50
2019-05-13T11:39:13.631Z,1026.43
2019-05-13T11:40:13.596Z,1026.42
2019-05-13T11:41:13.585Z,1026.43
2019-05-13T11:42:14.038Z,1026.38
2019-05-13T11:43:13.563Z,1026.43
2019-05-13T11:44:16.636Z,1026.39
2019-05-13T11:45:13.564Z,1026.40
2019-05-13T11:46:13.534Z,1026.39
2019-05-13T11:47:13.522Z,1026.40
2019-05-13T11:48:13.510Z,1026.35
2019-05-13T11:49:13.501Z,1026.48
2019-05-13T11:50:13.508Z,1026.39
2019-05-13T11:51:13.557Z,1026.37
2019-05-13T11:52:13.472Z,1026.40
2019-05-13T11:53:31.403Z,1026.33
2019-05-13T11:54:14.447Z,1026.38
2019-05-13T11:55:13.459Z,1026.35
2019-05-13T11:56:13.428Z,1026.29
2019-05-13T11:57:13.418Z,1026.20
2019-05-13T11:58:14.103Z,1026.22
2019-05-13T11:59:14.188Z,1026.19
2019-05-13T12:00:13.766Z,1026.20
2019-05-13T12:01:13.391Z,1026.17
2019-05-13T12:02:13.993Z,1026.15
2019-05-13T12:03:13.355Z,1026.11
2019-05-13T12:04:13.342Z,1026.11
2019-05-13T12:05:13.331Z,1026.08